Terminal Aerodrome Forecast
Issued by NWS Cleveland, OH

Home | Current Version | Previous Version | Text Only | Print | Product List | Glossary Off
Versions: 1 2 3 4 5 6 7 8 9 10 11 12 13 14 15 16 17 18

032
FTUS41 KCLE 011319 AAA
TAFCAK
TAF AMD
KCAK 011319Z 0113/0212 26014G22KT P6SM SCT025 OVC035
      TEMPO 0113/0117 5SM -DZ BKN020
     FM020000 25012KT P6SM SCT030
     FM020600 27010KT P6SM BKN015=

USA.gov is the U.S. government's official web portal to all federal, state and local government web resources and services.